N9677W EGPL-EGPF

Flight info

Callsign N9677W
Flight time N/A
Altitude 25000
Route TOBMO Y958 BRUCE
Aircraft MD83/M-SDFGIRWY/C

Departure

Time 2026-04-19 21:27
Airport Benbecula Airport (EGPL)

Arrival

Time N/A
Airport Glasgow Airport (EGPF)
Time Latitude Longitude Altitude Speed Heading
2026-04-19 20:37 57.47518 -7.37225 27 ft 0 kts 19°
2026-04-19 21:12 57.47505 -7.37231 27 ft 4 kts 352°
2026-04-19 21:13 57.47493 -7.37214 27 ft 4 kts 293°
2026-04-19 21:13 57.47486 -7.37181 27 ft 0 kts 287°
2026-04-19 21:16 57.47487 -7.37187 27 ft 1 kts 287°
2026-04-19 21:17 57.47490 -7.37205 27 ft 2 kts 287°
2026-04-19 21:17 57.47491 -7.37212 27 ft 0 kts 287°
2026-04-19 21:19 57.47492 -7.37218 27 ft 1 kts 287°
2026-04-19 21:19 57.47495 -7.37236 27 ft 2 kts 287°
2026-04-19 21:20 57.47500 -7.37265 27 ft 3 kts 287°
2026-04-19 21:20 57.47507 -7.37308 27 ft 4 kts 288°
2026-04-19 21:20 57.47524 -7.37351 27 ft 5 kts 314°
2026-04-19 21:20 57.47551 -7.37391 27 ft 5 kts 324°
2026-04-19 21:21 57.47583 -7.37434 27 ft 6 kts 324°
2026-04-19 21:21 57.47614 -7.37474 27 ft 4 kts 325°
2026-04-19 21:21 57.47640 -7.37501 27 ft 4 kts 347°
2026-04-19 21:21 57.47663 -7.37484 27 ft 4 kts 38°
2026-04-19 21:22 57.47676 -7.37454 27 ft 0 kts 55°
2026-04-19 21:23 57.47686 -7.37426 27 ft 0 kts 56°
2026-04-19 21:25 57.47700 -7.37388 27 ft 0 kts 56°
2026-04-19 21:26 57.47700 -7.37387 27 ft 2 kts 56°
2026-04-19 21:26 57.47787 -7.37151 28 ft 54 kts 55°
2026-04-19 21:27 57.48139 -7.36203 26 ft 121 kts 54°
2026-04-19 21:27 57.48700 -7.34674 189 ft 153 kts 52°
2026-04-19 21:27 57.49309 -7.33150 908 ft 145 kts 50°
2026-04-19 21:27 57.49960 -7.31676 1483 ft 150 kts 47°
2026-04-19 21:28 57.50672 -7.30203 2000 ft 158 kts 45°
2026-04-19 21:28 57.51459 -7.28731 2570 ft 160 kts 41°
2026-04-19 21:28 57.52221 -7.27262 3168 ft 162 kts 51°
2026-04-19 21:28 57.52892 -7.25463 3602 ft 170 kts 55°
2026-04-19 21:29 57.53587 -7.23462 3806 ft 202 kts 56°
2026-04-19 21:29 57.54369 -7.21185 4397 ft 214 kts 56°
2026-04-19 21:29 57.54978 -7.18499 4853 ft 239 kts 80°
2026-04-19 21:29 57.54865 -7.15299 5403 ft 261 kts 107°
2026-04-19 21:30 57.53969 -7.12246 5935 ft 280 kts 130°
2026-04-19 21:30 57.52447 -7.09937 6454 ft 284 kts 152°
2026-04-19 21:30 57.50600 -7.08823 6923 ft 287 kts 174°
2026-04-19 21:30 57.48599 -7.08630 7363 ft 288 kts 180°
2026-04-19 21:31 57.46586 -7.08563 7803 ft 291 kts 175°
2026-04-19 21:31 57.44627 -7.07634 8266 ft 293 kts 157°
2026-04-19 21:31 57.42751 -7.06071 8782 ft 299 kts 154°
2026-04-19 21:31 57.40869 -7.04375 9544 ft 302 kts 153°
2026-04-19 21:32 57.39001 -7.02654 10251 ft 309 kts 153°
2026-04-19 21:32 57.37011 -7.00787 10422 ft 332 kts 152°
2026-04-19 21:32 57.34886 -6.98787 10602 ft 353 kts 152°
2026-04-19 21:32 57.32791 -6.96835 10765 ft 370 kts 153°
2026-04-19 21:33 57.30697 -6.94908 11050 ft 381 kts 153°
2026-04-19 21:33 57.28302 -6.92727 11680 ft 385 kts 153°
2026-04-19 21:33 57.25893 -6.90552 12367 ft 387 kts 153°
2026-04-19 21:33 57.23453 -6.88369 12994 ft 391 kts 153°
2026-04-19 21:34 57.20983 -6.86175 13603 ft 396 kts 153°
2026-04-19 21:34 57.18487 -6.83971 14226 ft 400 kts 153°
2026-04-19 21:34 57.15959 -6.81764 14774 ft 405 kts 154°
2026-04-19 21:34 57.13263 -6.80151 15242 ft 412 kts 175°
2026-04-19 21:35 57.10612 -6.81281 15346 ft 415 kts 224°
2026-04-19 21:35 57.09651 -6.86003 12758 ft 428 kts 294°
2026-04-19 21:35 57.12238 -6.87525 6651 ft 518 kts 42°
2026-04-19 21:35 57.11409 -6.81944 2242 ft 584 kts 173°
2026-04-19 21:36 57.09423 -6.85077 4 ft 314 kts 260°